CheckWX is a tool to help pilots better visualize weather data.  It is not intended as a substitute for an official pre-flight weather briefing.

06:49:51 UTC

2G4 METAR
Garrett County Airport
Oakland, Maryland, USA
Current

25 mins ago

K2G4 190625Z AUTO 32006KT 5SM OVC011 M09/M10 A3033 RMK AO1
Observed
Feb-19 @ 06:25 UTC
Wind
  • 320° at 6 KTS
Visibility
5 SM
Flight Rules
MVFR
Cloud Levels
  • Overcast at 1,100' AGL
Temperature
-9°C / 16°F
Dewpoint
-10°C / 14°F
Humidity
93%
Altimeter
30.33" Hg
Pressure
1027.12 hPa
Previous

45 mins ago

K2G4 190605Z AUTO 31007KT 7SM OVC011 M09/M10 A3033 RMK AO1
Observed
Feb-19 @ 06:05 UTC
Wind
  • 310° at 7 KTS
Visibility
7 SM
Flight Rules
MVFR
Cloud Levels
  • Overcast at 1,100' AGL
Temperature
-9°C / 16°F
Dewpoint
-10°C / 14°F
Humidity
93%
Altimeter
30.33" Hg
Pressure
1027.12 hPa
Previous

1 hour ago

K2G4 190545Z AUTO 30005KT 7SM OVC009 M08/M10 A3032 RMK AO1
Observed
Feb-19 @ 05:45 UTC
Wind
  • 300° at 5 KTS
Visibility
7 SM
Flight Rules
IFR
Cloud Levels
  • Overcast at 900' AGL
Temperature
-8°C / 18°F
Dewpoint
-10°C / 14°F
Humidity
86%
Altimeter
30.32" Hg
Pressure
1026.72 hPa